Time;durP1;ratioP1;P1;durP2;ratioP2;P2;SDS_P1;SDS_P2;PMS_P1;PMS_P2;Temp;Humidity;BMP_temperature;BMP_pressure;BME280_temperature;BME280_humidity;BME280_pressure;Samples;Min_cycle;Max_cycle;Signal;HPM_P1;HPM_P2
2022/03/19 00:00:39;;;;;;;17.30;11.00;;;25.90;99.90;;;;;;5029981;28;20075;-63
2022/03/19 00:03:06;;;;;;;18.63;11.93;;;26.10;99.90;;;;;;5031314;28;20035;-63
2022/03/19 00:05:33;;;;;;;15.50;5.85;;;26.30;99.90;;;;;;5035954;28;20021;-63
2022/03/19 00:08:02;;;;;;;11.18;5.78;;;26.40;99.90;;;;;;5035506;28;20033;-63
2022/03/19 00:10:28;;;;;;;12.05;6.30;;;26.30;99.90;;;;;;5035942;28;20060;-63
2022/03/19 00:12:55;;;;;;;12.27;5.93;;;26.30;99.90;;;;;;5035625;28;20377;-63
2022/03/19 00:15:22;;;;;;;10.18;6.10;;;26.20;99.90;;;;;;5035641;28;20061;-63
2022/03/19 00:17:48;;;;;;;7.22;3.20;;;26.20;99.90;;;;;;5035647;28;20083;-63
2022/03/19 00:20:15;;;;;;;10.10;4.35;;;26.20;99.90;;;;;;5035909;28;20105;-64
2022/03/19 00:22:43;;;;;;;23.17;10.35;;;26.40;99.90;;;;;;5035462;28;20033;-63
2022/03/19 00:25:11;;;;;;;27.77;12.75;;;26.40;99.90;;;;;;5035563;28;20097;-63
2022/03/19 00:27:40;;;;;;;11.20;4.85;;;26.50;99.90;;;;;;5035617;28;20036;-64
2022/03/19 00:30:09;;;;;;;8.38;3.47;;;26.50;99.90;;;;;;5035368;28;20112;-64
2022/03/19 00:32:35;;;;;;;11.05;3.95;;;26.60;99.90;;;;;;5035653;28;20038;-64
2022/03/19 00:35:03;;;;;;;12.57;3.70;;;26.70;99.90;;;;;;5029854;28;20025;-64
2022/03/19 00:37:32;;;;;;;7.50;3.70;;;26.90;99.90;;;;;;5026224;28;20037;-63
2022/03/19 00:39:59;;;;;;;5.40;3.53;;;27.00;99.90;;;;;;5035159;28;20071;-64
2022/03/19 00:42:25;;;;;;;11.43;4.93;;;27.00;99.90;;;;;;5035188;28;20037;-64
2022/03/19 00:44:52;;;;;;;9.98;4.18;;;27.10;99.90;;;;;;5035743;28;20125;-64
2022/03/19 00:47:19;;;;;;;21.90;14.82;;;27.20;99.90;;;;;;5035144;28;20107;-63
2022/03/19 00:49:45;;;;;;;11.32;6.50;;;27.30;99.90;;;;;;5035080;28;20021;-65
2022/03/19 00:52:12;;;;;;;9.68;5.53;;;27.50;99.90;;;;;;5035150;28;20176;-64
2022/03/19 00:54:39;;;;;;;41.45;31.20;;;27.60;99.90;;;;;;5034493;28;20084;-64
2022/03/19 00:57:05;;;;;;;9.50;5.70;;;27.60;99.90;;;;;;5034770;28;20029;-64
2022/03/19 00:59:32;;;;;;;32.40;22.50;;;27.70;99.90;;;;;;5034761;28;20396;-64
2022/03/19 01:01:59;;;;;;;59.45;41.40;;;27.90;99.90;;;;;;5035156;28;20388;-64
2022/03/19 01:04:25;;;;;;;11.40;4.53;;;28.00;99.90;;;;;;5034976;28;20498;-63
2022/03/19 01:06:52;;;;;;;12.18;6.85;;;28.00;99.90;;;;;;5034652;28;20076;-63
2022/03/19 01:09:19;;;;;;;4.80;3.45;;;28.00;99.90;;;;;;5035268;28;20065;-64
2022/03/19 01:11:45;;;;;;;7.30;2.95;;;28.10;99.90;;;;;;5034626;28;20026;-63
2022/03/19 01:14:12;;;;;;;11.20;3.08;;;28.10;99.90;;;;;;5034840;28;20530;-63
2022/03/19 01:16:39;;;;;;;9.60;3.78;;;28.00;99.90;;;;;;5034631;28;20075;-64
2022/03/19 01:19:06;;;;;;;7.05;3.28;;;28.00;99.90;;;;;;5031728;28;20092;-64
2022/03/19 01:21:33;;;;;;;14.13;4.97;;;28.00;99.90;;;;;;5026646;28;20030;-64
2022/03/19 01:23:59;;;;;;;10.43;5.07;;;28.00;99.90;;;;;;5019384;28;20021;-63
2022/03/19 01:26:27;;;;;;;9.30;3.05;;;28.00;99.90;;;;;;5020098;28;20460;-64
2022/03/19 01:28:53;;;;;;;7.65;3.72;;;28.00;99.90;;;;;;5025854;28;20037;-64
2022/03/19 01:31:23;;;;;;;9.77;2.97;;;28.30;99.90;;;;;;5024541;28;20036;-65
2022/03/19 01:33:50;;;;;;;9.48;2.70;;;28.50;99.90;;;;;;5025433;28;20038;-62
2022/03/19 01:36:17;;;;;;;10.20;2.50;;;28.60;99.90;;;;;;5022040;28;20050;-63
2022/03/19 01:38:44;;;;;;;7.45;2.83;;;28.70;99.90;;;;;;5027921;28;20565;-61
2022/03/19 01:41:10;;;;;;;6.25;2.88;;;28.80;99.90;;;;;;5023710;28;20045;-60
2022/03/19 01:43:38;;;;;;;30.08;23.40;;;28.90;99.90;;;;;;5026325;28;20032;-61
2022/03/19 01:46:05;;;;;;;55.30;35.80;;;29.00;99.90;;;;;;5027202;28;20009;-61
2022/03/19 01:48:32;;;;;;;26.35;15.02;;;29.00;99.90;;;;;;5027466;28;20100;-61
2022/03/19 01:50:59;;;;;;;13.30;6.70;;;29.10;99.90;;;;;;5025387;28;20028;-64
2022/03/19 01:53:25;;;;;;;20.00;14.02;;;29.10;99.90;;;;;;5031387;28;20483;-61
2022/03/19 01:55:55;;;;;;;7.47;4.90;;;29.00;99.90;;;;;;5033402;28;20496;-60
2022/03/19 01:58:22;;;;;;;18.85;9.88;;;29.00;99.90;;;;;;5033303;28;20502;-59
2022/03/19 02:00:49;;;;;;;14.48;7.53;;;29.00;99.90;;;;;;5033664;28;20101;-61
2022/03/19 02:03:15;;;;;;;17.40;5.68;;;29.00;99.90;;;;;;5030252;28;20038;-61
2022/03/19 02:05:42;;;;;;;7.65;4.65;;;29.00;99.90;;;;;;5030899;28;20060;-61
2022/03/19 02:08:09;;;;;;;6.65;3.58;;;28.90;99.90;;;;;;5031227;28;20049;-60
2022/03/19 02:10:35;;;;;;;11.95;3.97;;;28.90;99.90;;;;;;5031826;28;20033;-59
2022/03/19 02:13:02;;;;;;;11.95;4.30;;;28.90;99.90;;;;;;5031888;28;20037;-61
2022/03/19 02:15:29;;;;;;;10.35;3.42;;;29.00;99.90;;;;;;5031395;28;20562;-61
2022/03/19 02:17:56;;;;;;;12.25;3.78;;;29.10;99.90;;;;;;5024458;28;20060;-61
2022/03/19 02:20:22;;;;;;;12.38;3.95;;;29.30;99.90;;;;;;5025222;28;20034;-57
2022/03/19 02:25:36;;;;;;;8.32;3.72;;;29.50;99.90;;;;;;5024608;28;20033;-60
2022/03/19 02:28:03;;;;;;;11.60;4.30;;;29.40;99.90;;;;;;5022702;28;20026;-56
2022/03/19 02:30:32;;;;;;;9.40;4.15;;;29.50;99.90;;;;;;5027467;28;20025;-61
2022/03/19 02:33:00;;;;;;;11.25;5.35;;;29.70;99.90;;;;;;5022978;28;20049;-59
2022/03/19 02:35:27;;;;;;;11.77;6.47;;;29.80;99.90;;;;;;5031917;28;20029;-62
2022/03/19 02:37:54;;;;;;;11.18;6.40;;;30.00;99.90;;;;;;5032874;28;20398;-66
2022/03/19 02:40:21;;;;;;;13.60;6.40;;;30.00;99.90;;;;;;5032918;28;20518;-64
2022/03/19 02:42:51;;;;;;;9.50;6.22;;;30.00;99.90;;;;;;5028385;28;20448;-63
2022/03/19 02:45:19;;;;;;;16.25;5.72;;;30.00;99.90;;;;;;5029455;28;20072;-62
2022/03/19 02:50:22;;;;;;;13.68;5.97;;;30.20;99.90;;;;;;5028919;28;20030;-62
2022/03/19 02:52:49;;;;;;;11.35;5.57;;;30.40;99.90;;;;;;5031379;28;20476;-63
2022/03/19 02:55:16;;;;;;;16.73;6.70;;;30.20;99.90;;;;;;5032415;28;20041;-65
2022/03/19 02:57:43;;;;;;;19.60;7.35;;;30.20;99.90;;;;;;5030829;28;20125;-61
2022/03/19 03:00:10;;;;;;;12.45;6.25;;;30.20;99.90;;;;;;5031610;28;20032;-63
2022/03/19 03:02:36;;;;;;;12.85;7.68;;;30.40;99.90;;;;;;5031854;28;20022;-61
2022/03/19 03:05:03;;;;;;;14.93;4.43;;;30.50;99.90;;;;;;5031880;28;20029;-63
2022/03/19 03:07:30;;;;;;;19.45;8.45;;;30.50;99.90;;;;;;5031758;28;20025;-63
2022/03/19 03:09:56;;;;;;;9.68;4.30;;;30.40;99.90;;;;;;5032188;28;20025;-62
2022/03/19 03:12:24;;;;;;;18.90;8.50;;;30.40;99.90;;;;;;5030459;28;20107;-62
2022/03/19 03:14:51;;;;;;;12.13;4.57;;;30.30;99.90;;;;;;5031612;28;20021;-63
2022/03/19 03:17:17;;;;;;;16.33;5.70;;;30.30;99.90;;;;;;5031755;28;20033;-61
2022/03/19 03:19:44;;;;;;;17.42;6.28;;;30.30;99.90;;;;;;5032622;28;20013;-64
2022/03/19 03:22:11;;;;;;;12.23;5.40;;;30.50;99.90;;;;;;5036401;28;20026;-64
2022/03/19 03:24:37;;;;;;;10.88;5.65;;;30.60;99.90;;;;;;5033376;28;20246;-63
2022/03/19 03:27:04;;;;;;;17.95;6.78;;;30.60;99.90;;;;;;5035906;28;20033;-62
2022/03/19 03:29:31;;;;;;;11.48;5.78;;;30.90;99.90;;;;;;5030207;28;20026;-63
2022/03/19 03:31:57;;;;;;;10.90;5.35;;;30.80;99.90;;;;;;5036162;28;20049;-63
2022/03/19 03:34:24;;;;;;;15.02;5.32;;;30.80;99.90;;;;;;5035447;28;20027;-62
2022/03/19 03:36:51;;;;;;;11.75;4.78;;;30.80;99.90;;;;;;5035924;28;20013;-63
2022/03/19 03:39:17;;;;;;;10.48;4.53;;;30.90;99.90;;;;;;5036075;28;20529;-60
2022/03/19 03:41:44;;;;;;;7.82;5.10;;;31.00;99.90;;;;;;5036375;28;20514;-63
2022/03/19 03:44:11;;;;;;;12.85;5.88;;;31.00;99.90;;;;;;5035955;28;20032;-63
2022/03/19 03:46:37;;;;;;;16.95;6.10;;;31.00;99.90;;;;;;5035763;28;20029;-63
2022/03/19 03:49:04;;;;;;;15.18;4.97;;;31.20;99.90;;;;;;5028507;28;20032;-63
2022/03/19 03:51:31;;;;;;;11.07;4.70;;;31.20;99.90;;;;;;5028990;28;20030;-64
2022/03/19 03:53:58;;;;;;;11.95;4.90;;;31.10;99.90;;;;;;5027213;28;20144;-62
2022/03/19 03:56:24;;;;;;;18.95;7.07;;;31.10;99.90;;;;;;5029570;28;20021;-62
2022/03/19 03:58:51;;;;;;;6.82;4.00;;;31.20;99.90;;;;;;5026878;28;20105;-61
2022/03/19 04:01:18;;;;;;;8.98;5.43;;;31.30;99.90;;;;;;5026699;28;20026;-62
2022/03/19 04:03:45;;;;;;;14.30;5.53;;;31.40;99.90;;;;;;5025342;28;20087;-60
2022/03/19 04:06:11;;;;;;;9.88;3.72;;;31.50;99.90;;;;;;5035726;28;20026;-62
2022/03/19 04:08:38;;;;;;;6.93;3.72;;;31.50;99.90;;;;;;5035609;28;20056;-62
2022/03/19 04:11:05;;;;;;;9.68;4.10;;;31.60;99.90;;;;;;5035780;28;20558;-63
2022/03/19 04:13:31;;;;;;;7.75;3.67;;;31.70;99.90;;;;;;5035718;28;20043;-62
2022/03/19 04:15:58;;;;;;;6.57;3.20;;;31.70;99.90;;;;;;5036040;28;20025;-62
2022/03/19 04:18:26;;;;;;;10.30;3.80;;;31.90;99.90;;;;;;5023631;28;20036;-62
2022/03/19 04:20:54;;;;;;;16.38;5.13;;;31.90;99.90;;;;;;5035294;28;20025;-62
2022/03/19 04:23:21;;;;;;;6.28;3.67;;;32.00;99.90;;;;;;5035677;28;20053;-63
2022/03/19 04:25:47;;;;;;;6.28;2.60;;;32.10;99.90;;;;;;5027339;28;20014;-61
2022/03/19 04:28:14;;;;;;;4.97;2.40;;;32.20;98.20;;;;;;5027113;28;20098;-61
2022/03/19 04:30:41;;;;;;;9.05;2.80;;;32.20;97.30;;;;;;5029625;28;20033;-61
2022/03/19 04:33:08;;;;;;;4.72;3.05;;;32.30;97.80;;;;;;5025472;28;20109;-61
2022/03/19 04:38:23;;;;;;;7.70;4.18;;;32.20;96.20;;;;;;5024067;28;20045;-61
2022/03/19 04:40:51;;;;;;;11.23;4.88;;;32.10;97.10;;;;;;5027692;28;20029;-60
2022/03/19 04:43:19;;;;;;;9.43;3.78;;;32.20;96.10;;;;;;5026239;28;20025;-60
2022/03/19 04:45:46;;;;;;;10.90;6.95;;;32.20;94.80;;;;;;5026079;28;20216;-60
2022/03/19 04:48:13;;;;;;;13.15;6.00;;;32.20;95.30;;;;;;5031491;28;20029;-60
2022/03/19 04:50:41;;;;;;;7.63;4.07;;;32.20;97.00;;;;;;5028787;28;20028;-60
2022/03/19 04:53:09;;;;;;;8.75;3.00;;;32.40;95.80;;;;;;5027008;28;20028;-61
2022/03/19 04:55:37;;;;;;;6.93;3.78;;;32.50;94.90;;;;;;5026640;28;20037;-61
2022/03/19 04:58:05;;;;;;;5.50;2.85;;;32.40;95.80;;;;;;5025242;28;20020;-61
2022/03/19 05:00:32;;;;;;;5.68;2.38;;;32.50;95.60;;;;;;5029814;28;20105;-62
2022/03/19 05:02:59;;;;;;;6.38;3.38;;;32.50;93.10;;;;;;5024176;28;20026;-60
2022/03/19 05:05:26;;;;;;;6.05;3.10;;;32.50;94.90;;;;;;5029506;28;20056;-61
2022/03/19 05:07:54;;;;;;;4.10;2.40;;;32.60;93.10;;;;;;5061995;22;20440;-62
2022/03/19 05:12:57;;;;;;;6.38;2.42;;;32.70;92.10;;;;;;5069972;28;20028;-62
2022/03/19 05:15:23;;;;;;;4.05;2.47;;;32.80;93.20;;;;;;5065374;28;20033;-61
2022/03/19 05:17:50;;;;;;;5.82;2.30;;;32.80;92.60;;;;;;5069037;28;20212;-61
2022/03/19 05:20:17;;;;;;;3.65;2.33;;;32.90;92.60;;;;;;5067255;28;20074;-61
2022/03/19 05:22:43;;;;;;;5.25;2.38;;;33.00;92.10;;;;;;5067182;28;20029;-61
2022/03/19 05:25:10;;;;;;;4.70;2.65;;;33.00;92.60;;;;;;5065253;28;20050;-62
2022/03/19 05:27:38;;;;;;;8.95;2.92;;;33.10;92.40;;;;;;5061795;28;20081;-61
2022/03/19 05:30:06;;;;;;;7.78;2.60;;;33.10;92.60;;;;;;5063857;28;20020;-60
2022/03/19 05:32:33;;;;;;;3.88;2.42;;;33.00;91.40;;;;;;5071918;28;20029;-61
2022/03/19 05:35:02;;;;;;;5.80;2.78;;;32.90;91.50;;;;;;5073620;28;20021;-61
2022/03/19 05:37:28;;;;;;;6.43;2.75;;;32.80;92.00;;;;;;5073734;28;20025;-60
2022/03/19 05:39:55;;;;;;;5.65;2.03;;;32.80;92.50;;;;;;5073387;28;20016;-61
2022/03/19 05:42:23;;;;;;;5.68;2.60;;;32.80;91.30;;;;;;5071741;28;20116;-61
2022/03/19 05:44:50;;;;;;;6.18;4.05;;;32.70;91.90;;;;;;5072100;28;20382;-61
2022/03/19 05:47:16;;;;;;;6.25;2.90;;;32.70;91.10;;;;;;5072583;28;20313;-61
2022/03/19 05:49:43;;;;;;;9.82;3.72;;;32.70;91.70;;;;;;5073172;28;20031;-60
2022/03/19 05:52:10;;;;;;;9.05;4.05;;;32.70;91.40;;;;;;5072565;28;20016;-60
2022/03/19 05:54:37;;;;;;;9.77;2.17;;;32.70;91.20;;;;;;5073353;28;20036;-60
2022/03/19 05:57:05;;;;;;;5.38;2.28;;;32.60;91.10;;;;;;5073159;28;20021;-61
2022/03/19 05:59:31;;;;;;;7.88;2.55;;;32.60;90.70;;;;;;5072884;28;20023;-62
2022/03/19 06:01:58;;;;;;;8.40;4.75;;;32.60;90.40;;;;;;5072837;28;20027;-61
2022/03/19 06:04:25;;;;;;;6.47;3.95;;;32.70;91.10;;;;;;5073227;28;20044;-62
2022/03/19 06:06:51;;;;;;;14.63;3.10;;;32.70;91.80;;;;;;5070224;28;20366;-64
2022/03/19 06:09:18;;;;;;;6.07;2.40;;;32.70;91.10;;;;;;5071174;28;20616;-64
2022/03/19 06:11:45;;;;;;;4.90;2.05;;;32.70;90.40;;;;;;5072344;28;20025;-63
2022/03/19 06:14:12;;;;;;;7.68;3.22;;;32.70;90.10;;;;;;5072657;28;20024;-64
2022/03/19 06:16:39;;;;;;;9.25;3.00;;;32.70;90.40;;;;;;5072334;28;20037;-60
2022/03/19 06:19:06;;;;;;;7.40;2.50;;;32.70;90.20;;;;;;5066785;28;20523;-61
2022/03/19 06:21:32;;;;;;;9.98;2.47;;;32.70;91.10;;;;;;5069716;28;20050;-62
2022/03/19 06:23:59;;;;;;;3.47;2.53;;;32.80;91.30;;;;;;5070682;28;20423;-61
2022/03/19 06:26:26;;;;;;;8.82;2.60;;;32.80;90.80;;;;;;5072039;28;20025;-60
2022/03/19 06:28:53;;;;;;;6.35;2.45;;;32.90;91.10;;;;;;5072494;28;20045;-61
2022/03/19 06:31:20;;;;;;;5.43;2.33;;;32.90;91.10;;;;;;5072489;28;20056;-61
2022/03/19 06:33:47;;;;;;;5.95;2.53;;;32.90;90.00;;;;;;5072082;28;20549;-62
2022/03/19 06:39:00;;;;;;;5.82;2.72;;;32.80;90.90;;;;;;5036107;28;20040;-61
2022/03/19 06:41:27;;;;;;;8.88;2.70;;;32.90;90.70;;;;;;5053588;28;20037;-62
2022/03/19 06:43:54;;;;;;;6.82;2.70;;;32.90;90.60;;;;;;5050728;28;20471;-63
2022/03/19 06:46:21;;;;;;;4.80;2.58;;;33.00;90.80;;;;;;5036543;28;20036;-62
2022/03/19 06:48:49;;;;;;;7.63;2.88;;;33.20;90.90;;;;;;5044823;28;20079;-62
2022/03/19 06:51:18;;;;;;;4.55;1.75;;;33.40;90.20;;;;;;5043370;28;20034;-61
2022/03/19 06:53:46;;;;;;;3.40;2.10;;;33.40;87.30;;;;;;5035920;28;20045;-61
2022/03/19 06:56:13;;;;;;;3.50;2.03;;;33.60;86.50;;;;;;5043865;28;20435;-61
2022/03/19 06:58:41;;;;;;;5.45;3.40;;;33.60;87.40;;;;;;5044307;28;20402;-59
2022/03/19 07:01:15;;;;;;;3.20;2.22;;;33.70;86.70;;;;;;5045299;28;20032;-62
2022/03/19 07:03:43;;;;;;;6.80;2.53;;;33.80;89.30;;;;;;5044806;28;20064;-61
2022/03/19 07:06:11;;;;;;;6.47;3.65;;;34.00;86.70;;;;;;5043618;28;20021;-62
2022/03/19 07:08:38;;;;;;;5.18;2.38;;;34.00;87.40;;;;;;5044191;28;20490;-61
2022/03/19 07:11:05;;;;;;;5.18;1.60;;;34.00;87.10;;;;;;5046413;28;20475;-62
2022/03/19 07:13:32;;;;;;;3.05;1.63;;;34.00;83.50;;;;;;5045293;28;20035;-60
2022/03/19 07:15:58;;;;;;;3.85;1.70;;;34.00;85.40;;;;;;5060120;28;20036;-61
2022/03/19 07:18:25;;;;;;;4.32;2.58;;;34.00;83.90;;;;;;5075978;28;20028;-60
2022/03/19 07:20:52;;;;;;;11.80;4.22;;;33.90;84.20;;;;;;5075791;28;20031;-61
2022/03/19 07:23:19;;;;;;;10.32;1.92;;;33.90;86.30;;;;;;5075765;28;20070;-60
2022/03/19 07:25:46;;;;;;;4.53;2.08;;;33.80;83.20;;;;;;5076142;28;20012;-60
2022/03/19 07:28:17;;;;;;;4.15;2.28;;;33.90;85.40;;;;;;5075982;28;20493;-61
2022/03/19 07:30:44;;;;;;;6.90;2.60;;;33.90;86.20;;;;;;5075787;28;20036;-62
2022/03/19 07:33:11;;;;;;;6.68;2.65;;;33.90;84.90;;;;;;5067408;28;20060;-61
2022/03/19 07:35:39;;;;;;;4.88;2.45;;;33.90;85.50;;;;;;5063296;28;20067;-61
2022/03/19 07:38:07;;;;;;;6.65;2.20;;;33.90;85.30;;;;;;5075098;28;20131;-62
2022/03/19 07:43:21;;;;;;;4.05;2.25;;;33.90;86.00;;;;;;5073400;28;20470;-61
2022/03/19 07:45:48;;;;;;;12.70;6.35;;;33.90;85.20;;;;;;5075657;28;20147;-61
2022/03/19 07:48:15;;;;;;;5.95;2.78;;;33.90;87.10;;;;;;5075738;28;20029;-61
2022/03/19 07:50:42;;;;;;;8.98;3.22;;;33.90;87.90;;;;;;5073750;28;20478;-62
2022/03/19 07:53:09;;;;;;;5.43;2.03;;;34.00;86.80;;;;;;5074850;28;20579;-61
2022/03/19 07:55:36;;;;;;;5.70;2.67;;;33.90;85.60;;;;;;5073187;28;20052;-61
2022/03/19 07:58:03;;;;;;;8.77;3.30;;;33.90;86.30;;;;;;5071000;28;20031;-64
2022/03/19 08:00:30;;;;;;;18.75;13.48;;;33.80;86.10;;;;;;5072573;28;20033;-63
2022/03/19 08:02:57;;;;;;;33.30;21.48;;;33.80;86.20;;;;;;5074002;28;20556;-63
2022/03/19 08:05:24;;;;;;;7.38;4.90;;;33.80;86.40;;;;;;5073301;28;20025;-63
2022/03/19 08:07:51;;;;;;;11.73;4.70;;;33.80;85.70;;;;;;5073450;28;20035;-65
2022/03/19 08:10:21;;;;;;;8.13;4.55;;;33.80;86.20;;;;;;5070961;28;20549;-63
2022/03/19 08:12:49;;;;;;;9.60;7.32;;;33.80;84.40;;;;;;5072429;28;20029;-63
2022/03/19 08:15:16;;;;;;;11.48;4.82;;;33.80;85.80;;;;;;5073716;28;20028;-64
2022/03/19 08:17:44;;;;;;;6.70;2.65;;;33.80;84.30;;;;;;5074824;28;20133;-63
2022/03/19 08:20:11;;;;;;;5.05;2.75;;;33.80;83.30;;;;;;5075353;28;20044;-63
2022/03/19 08:22:38;;;;;;;14.95;6.88;;;33.80;84.90;;;;;;5075417;28;20031;-62
2022/03/19 08:25:06;;;;;;;8.40;2.72;;;33.70;84.70;;;;;;5075339;28;20107;-64
2022/03/19 08:27:32;;;;;;;6.05;2.72;;;33.80;84.80;;;;;;5075129;28;20074;-63
2022/03/19 08:29:59;;;;;;;2.83;2.03;;;33.80;83.40;;;;;;5074592;28;20032;-63
2022/03/19 08:32:26;;;;;;;10.00;2.40;;;33.70;85.60;;;;;;5074982;28;20043;-63
2022/03/19 08:34:53;;;;;;;4.75;2.88;;;33.70;84.70;;;;;;5074507;28;20023;-65
2022/03/19 08:37:19;;;;;;;6.00;2.85;;;33.70;85.50;;;;;;5073970;28;20037;-64
2022/03/19 08:42:34;;;;;;;9.63;3.00;;;33.80;82.40;;;;;;5074412;28;20066;-65
2022/03/19 08:45:01;;;;;;;10.45;5.10;;;33.80;83.40;;;;;;5073477;28;20025;-64
2022/03/19 08:47:29;;;;;;;12.35;4.85;;;33.90;82.70;;;;;;5074313;28;20082;-64
2022/03/19 08:49:56;;;;;;;21.50;12.27;;;33.90;85.80;;;;;;5073877;28;20032;-65
2022/03/19 08:52:23;;;;;;;14.32;8.52;;;33.90;84.10;;;;;;5073865;28;20051;-64
2022/03/19 08:54:49;;;;;;;15.98;10.05;;;33.90;80.80;;;;;;5074112;28;20642;-64
2022/03/19 08:57:16;;;;;;;28.45;18.88;;;33.90;80.40;;;;;;5073925;28;20119;-65
2022/03/19 08:59:43;;;;;;;5.10;3.58;;;33.90;79.50;;;;;;5074022;28;20096;-63
2022/03/19 09:02:09;;;;;;;11.35;3.95;;;33.80;79.80;;;;;;5074097;28;20037;-65
2022/03/19 09:04:37;;;;;;;6.47;3.30;;;33.80;82.80;;;;;;5073693;28;20112;-64
2022/03/19 09:07:04;;;;;;;10.45;4.78;;;33.80;81.00;;;;;;5072977;28;20054;-63
2022/03/19 09:09:30;;;;;;;9.73;3.47;;;33.70;81.40;;;;;;5072584;28;20093;-65
2022/03/19 09:11:57;;;;;;;6.38;3.53;;;33.70;81.60;;;;;;5074014;28;20020;-64
2022/03/19 09:14:24;;;;;;;7.15;3.53;;;33.80;81.50;;;;;;5073778;28;20107;-63
2022/03/19 09:16:51;;;;;;;6.55;3.65;;;33.80;80.80;;;;;;5067753;28;20040;-64
2022/03/19 09:19:17;;;;;;;9.63;4.38;;;33.80;80.30;;;;;;5072854;28;20513;-64
2022/03/19 09:21:44;;;;;;;12.07;5.57;;;33.70;80.20;;;;;;5072892;28;20113;-63
2022/03/19 09:24:11;;;;;;;16.70;7.25;;;33.70;80.60;;;;;;5073693;28;20036;-63
2022/03/19 09:26:37;;;;;;;28.02;9.68;;;33.70;82.10;;;;;;5074218;28;20033;-64
2022/03/19 09:29:04;;;;;;;19.63;11.68;;;33.70;82.40;;;;;;5072379;28;20512;-64
2022/03/19 09:31:31;;;;;;;8.77;6.57;;;33.80;81.40;;;;;;5073293;28;20506;-64
2022/03/19 09:33:58;;;;;;;25.45;20.08;;;33.80;83.50;;;;;;5073617;28;20508;-63
2022/03/19 09:36:25;;;;;;;20.90;14.68;;;33.70;81.00;;;;;;5073338;28;20433;-62
2022/03/19 09:38:52;;;;;;;14.45;7.50;;;33.70;83.20;;;;;;5072645;28;20037;-61
2022/03/19 09:41:19;;;;;;;22.00;7.22;;;33.80;81.80;;;;;;5069547;28;20021;-63
2022/03/19 09:43:45;;;;;;;14.27;6.57;;;33.80;83.30;;;;;;5072662;28;20029;-64
2022/03/19 09:46:12;;;;;;;13.93;7.10;;;33.80;82.30;;;;;;5072878;28;20494;-63
2022/03/19 09:48:39;;;;;;;10.88;6.28;;;33.80;83.70;;;;;;5070619;28;20115;-63
2022/03/19 09:51:09;;;;;;;14.70;6.80;;;33.80;83.70;;;;;;5070508;28;20034;-64
2022/03/19 09:53:36;;;;;;;43.38;33.50;;;33.80;83.60;;;;;;5072834;28;20548;-65
2022/03/19 09:56:03;;;;;;;27.83;19.35;;;33.80;84.30;;;;;;5073234;28;20498;-63
2022/03/19 09:58:30;;;;;;;21.70;13.02;;;33.80;83.70;;;;;;5072570;28;20033;-62
2022/03/19 10:01:06;;;;;;;33.40;24.25;;;33.80;84.20;;;;;;5073067;28;20521;-63
2022/03/19 10:03:39;;;;;;;24.65;15.57;;;33.80;85.60;;;;;;5072434;28;20028;-63
2022/03/19 10:08:59;;;;;;;28.05;13.35;;;33.80;82.80;;;;;;5068232;28;20181;-63
2022/03/19 10:11:37;;;;;;;26.70;14.35;;;33.80;84.00;;;;;;5073317;28;20107;-64
2022/03/19 10:14:06;;;;;;;24.73;11.63;;;33.70;84.50;;;;;;5072673;28;20547;-65
2022/03/19 10:16:36;;;;;;;47.55;27.77;;;33.80;83.80;;;;;;5071143;28;20471;-65
2022/03/19 10:19:05;;;;;;;22.63;13.65;;;33.70;83.50;;;;;;5072834;28;20032;-65
2022/03/19 10:21:38;;;;;;;25.90;15.25;;;33.60;84.20;;;;;;5071649;28;20031;-67
2022/03/19 10:24:08;;;;;;;26.45;15.75;;;33.70;83.70;;;;;;5071004;28;20032;-69
2022/03/19 10:26:37;;;;;;;35.70;22.40;;;33.70;84.80;;;;;;5067638;28;20028;-67
2022/03/19 10:29:10;;;;;;;185.07;108.78;;;33.60;85.10;;;;;;5070849;28;20060;-69
2022/03/19 10:31:39;;;;;;;189.65;116.03;;;33.60;85.90;;;;;;5069249;28;20029;-68
2022/03/19 10:34:07;;;;;;;197.65;118.93;;;33.60;86.50;;;;;;5073630;28;20470;-65
2022/03/19 10:36:38;;;;;;;277.65;176.65;;;33.50;87.00;;;;;;5072666;28;20032;-66
2022/03/19 10:39:20;;;;;;;172.95;106.38;;;33.40;87.50;;;;;;5072167;28;20391;-62
2022/03/19 10:41:50;;;;;;;76.38;44.13;;;33.40;88.40;;;;;;5072614;28;20111;-63
2022/03/19 10:44:19;;;;;;;57.78;36.22;;;33.30;88.10;;;;;;5073039;28;20047;-63
2022/03/19 10:46:50;;;;;;;65.13;36.97;;;33.30;88.50;;;;;;5072562;28;20616;-62
2022/03/19 10:49:19;;;;;;;74.47;42.13;;;33.30;88.80;;;;;;5071647;28;20031;-61
2022/03/19 10:51:51;;;;;;;133.57;77.57;;;33.20;88.60;;;;;;5069598;28;20417;-60
2022/03/19 10:54:18;;;;;;;136.35;81.95;;;33.20;88.40;;;;;;5072760;28;20250;-63
2022/03/19 10:56:47;;;;;;;114.47;70.70;;;33.20;89.00;;;;;;5072199;28;20025;-61
2022/03/19 10:59:14;;;;;;;140.68;76.25;;;33.10;89.30;;;;;;5072606;28;20478;-60
2022/03/19 11:01:41;;;;;;;131.95;85.20;;;33.10;90.00;;;;;;5072369;28;20020;-61
2022/03/19 11:04:10;;;;;;;64.68;38.05;;;33.00;88.80;;;;;;5072334;28;20052;-60
2022/03/19 11:06:39;;;;;;;166.52;103.80;;;32.60;88.50;;;;;;5069646;28;20070;-61
2022/03/19 11:09:10;;;;;;;112.90;74.88;;;32.00;88.30;;;;;;5070764;28;20037;-61
2022/03/19 11:11:59;;;;;;;39.17;24.80;;;31.50;90.10;;;;;;5071536;28;20054;-61
2022/03/19 11:14:28;;;;;;;76.95;44.03;;;30.80;91.10;;;;;;5067860;28;20835;-61
2022/03/19 11:19:52;;;;;;;48.50;35.00;;;30.30;92.40;;;;;;5068222;28;20052;-60
2022/03/19 11:22:21;;;;;;;44.80;26.92;;;30.00;92.80;;;;;;5070401;28;20201;-65
2022/03/19 11:25:06;;;;;;;22.50;12.23;;;29.90;93.80;;;;;;5071832;28;20521;-60
2022/03/19 11:27:37;;;;;;;21.52;13.43;;;29.90;94.50;;;;;;5070978;28;20032;-56
2022/03/19 11:30:05;;;;;;;20.30;12.32;;;29.70;95.00;;;;;;5072736;28;20047;-60
2022/03/19 11:32:32;;;;;;;34.05;20.30;;;29.60;95.20;;;;;;5071671;28;20028;-62
2022/03/19 11:35:01;;;;;;;18.13;12.57;;;29.60;95.90;;;;;;5071883;28;20085;-60
2022/03/19 11:37:59;;;;;;;24.60;19.05;;;29.50;95.60;;;;;;5070920;28;20095;-60
2022/03/19 11:40:29;;;;;;;24.05;12.50;;;29.50;95.90;;;;;;5006435;28;20113;-60
2022/03/19 11:43:01;;;;;;;21.45;9.77;;;29.50;95.60;;;;;;5010014;28;20080;-60
2022/03/19 11:45:37;;;;;;;36.47;28.35;;;29.40;95.10;;;;;;5011998;28;20037;-60
2022/03/19 11:48:24;;;;;;;22.05;7.88;;;29.40;96.60;;;;;;5011544;28;20098;-59
2022/03/19 11:50:51;;;;;;;21.20;6.97;;;29.30;96.10;;;;;;5011109;28;20121;-62
2022/03/19 11:53:18;;;;;;;14.20;7.55;;;29.10;97.60;;;;;;5010874;28;20034;-60
2022/03/19 11:55:45;;;;;;;15.63;7.32;;;29.00;98.90;;;;;;5006085;28;20033;-60
2022/03/19 11:58:14;;;;;;;28.40;13.93;;;28.70;98.70;;;;;;5005480;28;20629;-60
2022/03/19 12:00:40;;;;;;;36.58;17.17;;;28.50;99.90;;;;;;5007116;28;20037;-61
2022/03/19 12:03:12;;;;;;;27.27;12.20;;;28.20;99.90;;;;;;5004274;28;20026;-60
2022/03/19 12:05:44;;;;;;;21.35;9.63;;;27.60;99.90;;;;;;5004389;28;20030;-57
2022/03/19 12:08:13;;;;;;;;;;;27.40;99.90;;;;;;5006178;28;20508;-61
2022/03/19 12:22:57;;;;;;;18.33;7.57;;;27.40;99.90;;;;;;5129131;27;20471;-60
2022/03/19 12:25:37;;;;;;;98.18;51.88;;;27.60;99.90;;;;;;5128819;28;20055;-59
2022/03/19 12:28:04;;;;;;;56.58;32.90;;;27.50;99.90;;;;;;5128916;28;20023;-61
2022/03/19 12:30:35;;;;;;;25.38;14.70;;;27.50;99.90;;;;;;5129722;27;20035;-62
2022/03/19 12:33:02;;;;;;;63.50;42.05;;;27.20;99.90;;;;;;5129351;28;20023;-62
2022/03/19 12:35:43;;;;;;;19.83;5.43;;;27.20;99.90;;;;;;5129423;27;20444;-61
2022/03/19 12:38:10;;;;;;;10.27;4.80;;;26.90;99.90;;;;;;5126107;28;20035;-60
2022/03/19 12:43:36;;;;;;;15.48;5.18;;;26.80;99.90;;;;;;5127323;28;20016;-59
2022/03/19 12:46:03;;;;;;;15.63;6.40;;;26.60;99.90;;;;;;5129021;28;20027;-60
2022/03/19 12:48:32;;;;;;;9.80;4.95;;;26.60;99.90;;;;;;5130209;27;20095;-59
2022/03/19 12:51:00;;;;;;;9.95;5.03;;;26.50;99.90;;;;;;5126028;27;20027;-62
2022/03/19 12:53:37;;;;;;;9.48;4.60;;;26.50;99.90;;;;;;5126297;27;20020;-60
2022/03/19 12:56:14;;;;;;;9.18;4.90;;;26.50;99.90;;;;;;5125952;28;20036;-62
2022/03/19 12:58:44;;;;;;;19.55;5.47;;;26.50;99.90;;;;;;5127536;28;20026;-60
2022/03/19 13:01:12;;;;;;;6.97;4.18;;;26.50;99.90;;;;;;5124312;27;20572;-61
2022/03/19 13:03:41;;;;;;;10.70;4.78;;;26.50;99.90;;;;;;5115501;28;20039;-60
2022/03/19 13:06:08;;;;;;;9.05;4.53;;;26.60;99.90;;;;;;5130876;27;20036;-61
2022/03/19 13:08:48;;;;;;;12.27;5.40;;;26.70;99.90;;;;;;5118967;27;20042;-62
2022/03/19 13:11:17;;;;;;;10.32;4.78;;;26.80;99.90;;;;;;5124090;28;20031;-60
2022/03/19 13:13:45;;;;;;;10.10;4.70;;;26.80;99.90;;;;;;5113080;28;20024;-60
2022/03/19 13:16:25;;;;;;;7.07;4.15;;;26.60;99.90;;;;;;5106124;28;20032;-61
2022/03/19 13:18:58;;;;;;;8.02;4.47;;;26.70;99.90;;;;;;5097299;28;20028;-61
2022/03/19 13:21:25;;;;;;;8.02;4.57;;;26.70;99.90;;;;;;5096537;28;20032;-61